RYR84KM EGGW-LEMI
Flight info
| Callsign | RYR84KM |
|---|---|
| Flight time | 2h 21m |
| Altitude | 33000 |
| Route | RODNI N27 ICTAM Q63 CPT N859 VAPID UN859 SOPIL DCT BALAN DCT LMG DCT PIMQO DCT AGN DCT ANETO DCT POSSY DCT XIMPE DCT RIMES N860 VLC L34 ALT |
| Aircraft | B738/M-SDE2E3FGHIRWXY/LB1 |
Departure
| Time | 2026-04-16 04:22 |
|---|---|
| Airport | London Luton Airport (EGGW) |
Arrival
| Time | 2026-04-16 06:43 |
|---|---|
| Airport | Region of Murcia International Airport (LEMI) |
| Time | Latitude | Longitude | Altitude | Speed | Heading |
|---|---|---|---|---|---|
| 2026-04-16 03:57 | 51.87887 | -0.37930 | 522 ft | 0 kts | 72° |
| 2026-04-16 04:12 | 51.87887 | -0.37934 | 522 ft | 2 kts | 72° |
| 2026-04-16 04:12 | 51.87879 | -0.37974 | 522 ft | 4 kts | 74° |
| 2026-04-16 04:12 | 51.87879 | -0.38006 | 522 ft | 4 kts | 144° |
| 2026-04-16 04:13 | 51.87897 | -0.38016 | 522 ft | 4 kts | 174° |
| 2026-04-16 04:13 | 51.87910 | -0.38018 | 522 ft | 0 kts | 174° |
| 2026-04-16 04:16 | 51.87908 | -0.38018 | 522 ft | 1 kts | 174° |
| 2026-04-16 04:16 | 51.87902 | -0.38016 | 522 ft | 2 kts | 172° |
| 2026-04-16 04:16 | 51.87845 | -0.37985 | 522 ft | 11 kts | 148° |
| 2026-04-16 04:17 | 51.87794 | -0.37898 | 522 ft | 11 kts | 119° |
| 2026-04-16 04:17 | 51.87764 | -0.37791 | 522 ft | 10 kts | 114° |
| 2026-04-16 04:17 | 51.87732 | -0.37685 | 520 ft | 12 kts | 114° |
| 2026-04-16 04:17 | 51.87693 | -0.37549 | 519 ft | 13 kts | 120° |
| 2026-04-16 04:18 | 51.87624 | -0.37461 | 522 ft | 12 kts | 153° |
| 2026-04-16 04:18 | 51.87578 | -0.37349 | 521 ft | 13 kts | 104° |
| 2026-04-16 04:18 | 51.87587 | -0.37211 | 521 ft | 13 kts | 74° |
| 2026-04-16 04:18 | 51.87614 | -0.37059 | 521 ft | 15 kts | 73° |
| 2026-04-16 04:19 | 51.87643 | -0.36892 | 525 ft | 15 kts | 75° |
| 2026-04-16 04:19 | 51.87671 | -0.36729 | 521 ft | 15 kts | 74° |
| 2026-04-16 04:19 | 51.87702 | -0.36555 | 519 ft | 18 kts | 76° |
| 2026-04-16 04:19 | 51.87737 | -0.36333 | 517 ft | 23 kts | 75° |
| 2026-04-16 04:20 | 51.87779 | -0.36104 | 517 ft | 16 kts | 76° |
| 2026-04-16 04:20 | 51.87739 | -0.35953 | 515 ft | 16 kts | 157° |
| 2026-04-16 04:20 | 51.87657 | -0.35913 | 515 ft | 6 kts | 163° |
| 2026-04-16 04:20 | 51.87621 | -0.35934 | 515 ft | 6 kts | 237° |
| 2026-04-16 04:21 | 51.87609 | -0.36000 | 515 ft | 9 kts | 255° |
| 2026-04-16 04:21 | 51.87524 | -0.36488 | 522 ft | 81 kts | 254° |
| 2026-04-16 04:21 | 51.87310 | -0.37723 | 522 ft | 145 kts | 254° |
| 2026-04-16 04:21 | 51.87022 | -0.39450 | 1018 ft | 158 kts | 252° |
| 2026-04-16 04:22 | 51.86873 | -0.41122 | 2166 ft | 137 kts | 259° |
| 2026-04-16 04:22 | 51.86372 | -0.42394 | 2890 ft | 151 kts | 216° |
| 2026-04-16 04:22 | 51.85276 | -0.43141 | 3174 ft | 186 kts | 210° |
| 2026-04-16 04:22 | 51.84036 | -0.44091 | 3449 ft | 207 kts | 212° |
| 2026-04-16 04:23 | 51.82750 | -0.45229 | 3958 ft | 218 kts | 215° |
| 2026-04-16 04:23 | 51.81535 | -0.46817 | 4390 ft | 230 kts | 238° |
| 2026-04-16 04:23 | 51.80894 | -0.49184 | 4946 ft | 234 kts | 253° |
| 2026-04-16 04:23 | 51.80465 | -0.51727 | 4970 ft | 235 kts | 254° |
| 2026-04-16 04:24 | 51.80049 | -0.54283 | 4991 ft | 236 kts | 254° |
| 2026-04-16 04:24 | 51.79628 | -0.56846 | 5000 ft | 236 kts | 254° |
| 2026-04-16 04:24 | 51.79208 | -0.59414 | 5008 ft | 237 kts | 254° |
| 2026-04-16 04:24 | 51.78789 | -0.61979 | 5013 ft | 238 kts | 254° |
| 2026-04-16 04:25 | 51.78365 | -0.64567 | 5000 ft | 238 kts | 254° |
| 2026-04-16 04:25 | 51.77941 | -0.67146 | 5002 ft | 237 kts | 253° |
| 2026-04-16 04:25 | 51.77517 | -0.69720 | 5006 ft | 238 kts | 254° |
| 2026-04-16 04:25 | 51.77090 | -0.72301 | 5005 ft | 238 kts | 254° |
| 2026-04-16 04:26 | 51.76661 | -0.74884 | 4999 ft | 239 kts | 254° |
| 2026-04-16 04:26 | 51.76231 | -0.77465 | 4994 ft | 237 kts | 253° |
| 2026-04-16 04:26 | 51.75487 | -0.79809 | 5003 ft | 236 kts | 232° |
| 2026-04-16 04:26 | 51.74375 | -0.81759 | 4995 ft | 236 kts | 227° |
| 2026-04-16 04:27 | 51.73214 | -0.83634 | 4998 ft | 236 kts | 227° |
| 2026-04-16 04:27 | 51.72056 | -0.85502 | 5003 ft | 235 kts | 227° |
| 2026-04-16 04:27 | 51.70891 | -0.87368 | 5067 ft | 239 kts | 227° |
| 2026-04-16 04:27 | 51.69700 | -0.89266 | 5702 ft | 242 kts | 227° |
| 2026-04-16 04:28 | 51.68505 | -0.91171 | 6679 ft | 242 kts | 227° |
| 2026-04-16 04:28 | 51.67307 | -0.93090 | 7507 ft | 246 kts | 227° |
| 2026-04-16 04:28 | 51.66084 | -0.95047 | 8294 ft | 250 kts | 227° |
| 2026-04-16 04:28 | 51.64855 | -0.97014 | 9108 ft | 254 kts | 227° |
| 2026-04-16 04:29 | 51.63600 | -0.99018 | 10003 ft | 255 kts | 227° |
| 2026-04-16 04:29 | 51.62318 | -1.01066 | 10553 ft | 268 kts | 227° |
| 2026-04-16 04:29 | 51.60930 | -1.03277 | 10779 ft | 291 kts | 227° |
| 2026-04-16 04:29 | 51.59456 | -1.05616 | 11301 ft | 303 kts | 227° |
| 2026-04-16 04:30 | 51.57944 | -1.08008 | 12034 ft | 306 kts | 227° |
| 2026-04-16 04:30 | 51.56421 | -1.10417 | 12834 ft | 308 kts | 227° |
| 2026-04-16 04:30 | 51.54883 | -1.12848 | 13600 ft | 312 kts | 227° |
| 2026-04-16 04:30 | 51.53333 | -1.15297 | 14309 ft | 315 kts | 227° |
| 2026-04-16 04:31 | 51.51691 | -1.17663 | 14987 ft | 321 kts | 217° |
| 2026-04-16 04:31 | 51.49621 | -1.19146 | 15656 ft | 333 kts | 200° |
| 2026-04-16 04:31 | 51.47299 | -1.19697 | 16345 ft | 343 kts | 188° |
| 2026-04-16 04:31 | 51.44879 | -1.19343 | 16960 ft | 360 kts | 171° |
| 2026-04-16 04:32 | 51.42499 | -1.17879 | 17596 ft | 371 kts | 163° |
| 2026-04-16 04:32 | 51.40136 | -1.16106 | 18185 ft | 378 kts | 161° |
| 2026-04-16 04:32 | 51.37768 | -1.14216 | 18736 ft | 383 kts | 160° |
| 2026-04-16 04:32 | 51.35379 | -1.12271 | 19279 ft | 387 kts | 160° |
| 2026-04-16 04:33 | 51.32970 | -1.10305 | 19802 ft | 391 kts | 160° |
| 2026-04-16 04:33 | 51.30523 | -1.08320 | 20250 ft | 397 kts | 160° |
| 2026-04-16 04:33 | 51.28043 | -1.06322 | 20729 ft | 402 kts | 160° |
| 2026-04-16 04:33 | 51.25530 | -1.04306 | 21270 ft | 405 kts | 161° |
| 2026-04-16 04:34 | 51.22998 | -1.02283 | 21770 ft | 409 kts | 161° |
| 2026-04-16 04:34 | 51.20437 | -1.00245 | 22259 ft | 414 kts | 161° |
| 2026-04-16 04:34 | 51.17848 | -0.98189 | 22739 ft | 418 kts | 161° |
| 2026-04-16 04:34 | 51.15232 | -0.96115 | 23212 ft | 422 kts | 161° |
| 2026-04-16 04:35 | 51.12589 | -0.94024 | 23690 ft | 426 kts | 161° |
| 2026-04-16 04:35 | 51.09936 | -0.91924 | 24191 ft | 426 kts | 161° |
| 2026-04-16 04:35 | 51.07273 | -0.89819 | 24621 ft | 429 kts | 161° |
| 2026-04-16 04:35 | 51.04593 | -0.87705 | 25001 ft | 432 kts | 161° |
| 2026-04-16 04:36 | 51.01884 | -0.85573 | 25376 ft | 436 kts | 161° |
| 2026-04-16 04:36 | 50.99156 | -0.83428 | 25765 ft | 439 kts | 161° |
| 2026-04-16 04:36 | 50.96415 | -0.81276 | 26159 ft | 442 kts | 161° |
| 2026-04-16 04:36 | 50.93649 | -0.79106 | 26542 ft | 444 kts | 161° |
| 2026-04-16 04:37 | 50.90868 | -0.76928 | 26913 ft | 447 kts | 161° |
| 2026-04-16 04:37 | 50.88065 | -0.74735 | 27290 ft | 450 kts | 161° |
| 2026-04-16 04:37 | 50.85246 | -0.72533 | 27599 ft | 454 kts | 161° |
| 2026-04-16 04:37 | 50.82444 | -0.70348 | 27927 ft | 457 kts | 161° |
| 2026-04-16 04:38 | 50.79588 | -0.68123 | 28282 ft | 459 kts | 161° |
| 2026-04-16 04:38 | 50.76714 | -0.65886 | 28644 ft | 461 kts | 161° |
| 2026-04-16 04:38 | 50.73828 | -0.63642 | 28981 ft | 464 kts | 161° |
| 2026-04-16 04:38 | 50.70927 | -0.61391 | 29350 ft | 465 kts | 161° |
| 2026-04-16 04:39 | 50.68026 | -0.59141 | 29830 ft | 464 kts | 162° |
| 2026-04-16 04:39 | 50.65137 | -0.56900 | 30315 ft | 462 kts | 162° |
| 2026-04-16 04:39 | 50.62251 | -0.54668 | 30650 ft | 462 kts | 162° |
| 2026-04-16 04:39 | 50.59364 | -0.52440 | 30978 ft | 463 kts | 162° |
| 2026-04-16 04:40 | 50.56474 | -0.50214 | 31317 ft | 462 kts | 162° |
| 2026-04-16 04:40 | 50.53587 | -0.47992 | 31705 ft | 461 kts | 162° |
| 2026-04-16 04:40 | 50.50708 | -0.45779 | 32088 ft | 460 kts | 162° |
| 2026-04-16 04:40 | 50.47834 | -0.43573 | 32443 ft | 460 kts | 162° |
| 2026-04-16 04:41 | 50.45156 | -0.41521 | 32785 ft | 459 kts | 162° |
| 2026-04-16 04:41 | 50.42503 | -0.39490 | 33097 ft | 458 kts | 162° |
| 2026-04-16 04:41 | 50.36719 | -0.35080 | 33164 ft | 465 kts | 162° |
| 2026-04-16 04:42 | 50.30926 | -0.30663 | 33157 ft | 459 kts | 162° |
| 2026-04-16 04:42 | 50.25207 | -0.26310 | 33178 ft | 457 kts | 162° |
| 2026-04-16 04:43 | 50.19476 | -0.21972 | 33183 ft | 458 kts | 162° |
| 2026-04-16 04:43 | 50.13732 | -0.17635 | 33181 ft | 459 kts | 162° |
| 2026-04-16 04:44 | 50.07978 | -0.13299 | 33187 ft | 460 kts | 162° |
| 2026-04-16 04:44 | 50.02211 | -0.08964 | 33188 ft | 461 kts | 162° |
| 2026-04-16 04:45 | 49.96431 | -0.04630 | 33159 ft | 461 kts | 162° |
| 2026-04-16 04:45 | 49.90654 | -0.00309 | 33181 ft | 461 kts | 162° |
| 2026-04-16 04:46 | 49.84874 | 0.04000 | 33193 ft | 461 kts | 161° |
| 2026-04-16 04:46 | 49.79095 | 0.08299 | 33210 ft | 461 kts | 161° |
| 2026-04-16 04:47 | 49.73312 | 0.12590 | 33187 ft | 461 kts | 161° |
| 2026-04-16 04:47 | 49.67503 | 0.16718 | 33202 ft | 455 kts | 168° |
| 2026-04-16 04:48 | 49.61471 | 0.19257 | 33206 ft | 448 kts | 174° |
| 2026-04-16 04:48 | 49.55414 | 0.21564 | 33208 ft | 449 kts | 174° |
| 2026-04-16 04:49 | 49.49404 | 0.23939 | 33200 ft | 449 kts | 173° |
| 2026-04-16 04:49 | 49.43359 | 0.26374 | 33208 ft | 449 kts | 173° |
| 2026-04-16 04:50 | 49.37311 | 0.28810 | 33219 ft | 449 kts | 173° |
| 2026-04-16 04:50 | 49.31258 | 0.31236 | 33212 ft | 450 kts | 173° |
| 2026-04-16 04:51 | 49.25208 | 0.33741 | 33210 ft | 451 kts | 172° |
| 2026-04-16 04:51 | 49.19164 | 0.36303 | 33229 ft | 451 kts | 172° |
| 2026-04-16 04:52 | 49.13121 | 0.38850 | 33229 ft | 451 kts | 172° |
| 2026-04-16 04:52 | 49.07067 | 0.41384 | 33197 ft | 451 kts | 171° |
| 2026-04-16 04:53 | 49.01020 | 0.43906 | 33218 ft | 451 kts | 171° |
| 2026-04-16 04:53 | 48.94967 | 0.46425 | 33234 ft | 451 kts | 171° |
| 2026-04-16 04:54 | 48.88909 | 0.48939 | 33233 ft | 451 kts | 171° |
| 2026-04-16 04:54 | 48.82844 | 0.51452 | 33231 ft | 452 kts | 171° |
| 2026-04-16 04:55 | 48.76767 | 0.53942 | 33236 ft | 452 kts | 172° |
| 2026-04-16 04:55 | 48.70673 | 0.56320 | 33249 ft | 452 kts | 172° |
| 2026-04-16 04:56 | 48.64578 | 0.58681 | 33208 ft | 453 kts | 172° |
| 2026-04-16 04:56 | 48.59512 | 0.60654 | 33241 ft | 452 kts | 172° |
| 2026-04-16 04:57 | 48.53416 | 0.63027 | 33253 ft | 452 kts | 172° |
| 2026-04-16 04:57 | 48.47331 | 0.65448 | 33256 ft | 453 kts | 171° |
| 2026-04-16 04:58 | 48.41253 | 0.67936 | 33240 ft | 453 kts | 171° |
| 2026-04-16 04:58 | 48.35175 | 0.70410 | 33258 ft | 452 kts | 171° |
| 2026-04-16 04:59 | 48.29097 | 0.72868 | 33257 ft | 452 kts | 171° |
| 2026-04-16 04:59 | 48.23023 | 0.75308 | 33262 ft | 452 kts | 171° |
| 2026-04-16 05:00 | 48.16942 | 0.77704 | 33259 ft | 451 kts | 171° |
| 2026-04-16 05:00 | 48.10865 | 0.80085 | 33267 ft | 451 kts | 171° |
| 2026-04-16 05:01 | 48.04787 | 0.82467 | 33264 ft | 452 kts | 171° |
| 2026-04-16 05:01 | 47.98709 | 0.84847 | 33247 ft | 451 kts | 171° |
| 2026-04-16 05:02 | 47.92633 | 0.87220 | 33257 ft | 451 kts | 171° |
| 2026-04-16 05:02 | 47.86555 | 0.89589 | 33261 ft | 452 kts | 171° |
| 2026-04-16 05:03 | 47.80471 | 0.91951 | 33269 ft | 452 kts | 171° |
| 2026-04-16 05:04 | 47.71336 | 0.95481 | 33260 ft | 452 kts | 171° |
| 2026-04-16 05:04 | 47.65287 | 0.97813 | 33265 ft | 452 kts | 171° |
| 2026-04-16 05:05 | 47.59196 | 1.00156 | 33266 ft | 452 kts | 171° |
| 2026-04-16 05:05 | 47.53101 | 1.02496 | 33261 ft | 452 kts | 171° |
| 2026-04-16 05:06 | 47.47008 | 1.04830 | 33266 ft | 452 kts | 171° |
| 2026-04-16 05:06 | 47.40880 | 1.06505 | 33258 ft | 442 kts | 185° |
| 2026-04-16 05:07 | 47.34759 | 1.06332 | 33254 ft | 440 kts | 187° |
| 2026-04-16 05:07 | 47.28643 | 1.06101 | 33268 ft | 440 kts | 187° |
| 2026-04-16 05:08 | 47.22513 | 1.05937 | 33269 ft | 441 kts | 186° |
| 2026-04-16 05:08 | 47.16370 | 1.05802 | 33249 ft | 442 kts | 186° |
| 2026-04-16 05:09 | 47.10224 | 1.05669 | 33268 ft | 442 kts | 186° |
| 2026-04-16 05:09 | 47.04069 | 1.05532 | 33273 ft | 443 kts | 186° |
| 2026-04-16 05:10 | 46.97909 | 1.05335 | 33269 ft | 443 kts | 187° |
| 2026-04-16 05:10 | 46.91746 | 1.05048 | 33266 ft | 443 kts | 187° |
| 2026-04-16 05:11 | 46.85585 | 1.04765 | 33271 ft | 443 kts | 187° |
| 2026-04-16 05:11 | 46.79412 | 1.04493 | 33269 ft | 444 kts | 187° |
| 2026-04-16 05:12 | 46.73240 | 1.04228 | 33273 ft | 444 kts | 187° |
| 2026-04-16 05:12 | 46.67058 | 1.03962 | 33268 ft | 444 kts | 187° |
| 2026-04-16 05:13 | 46.60879 | 1.03697 | 33266 ft | 444 kts | 187° |
| 2026-04-16 05:13 | 46.54707 | 1.03433 | 33254 ft | 444 kts | 187° |
| 2026-04-16 05:14 | 46.48533 | 1.03214 | 33271 ft | 444 kts | 185° |
| 2026-04-16 05:14 | 46.42355 | 1.03163 | 33272 ft | 444 kts | 185° |
| 2026-04-16 05:15 | 46.36168 | 1.03132 | 33268 ft | 444 kts | 185° |
| 2026-04-16 05:15 | 46.30027 | 1.03082 | 33269 ft | 445 kts | 185° |
| 2026-04-16 05:16 | 46.23837 | 1.03022 | 33271 ft | 445 kts | 185° |
| 2026-04-16 05:16 | 46.17639 | 1.02959 | 33268 ft | 446 kts | 185° |
| 2026-04-16 05:17 | 46.11438 | 1.02896 | 33265 ft | 446 kts | 185° |
| 2026-04-16 05:17 | 46.05229 | 1.02834 | 33269 ft | 446 kts | 185° |
| 2026-04-16 05:18 | 45.99018 | 1.02772 | 33266 ft | 447 kts | 185° |
| 2026-04-16 05:18 | 45.92798 | 1.02711 | 33259 ft | 447 kts | 185° |
| 2026-04-16 05:19 | 45.86574 | 1.02649 | 33264 ft | 447 kts | 185° |
| 2026-04-16 05:19 | 45.80338 | 1.02785 | 33256 ft | 452 kts | 176° |
| 2026-04-16 05:20 | 45.74125 | 1.04339 | 33261 ft | 454 kts | 172° |
| 2026-04-16 05:20 | 45.67923 | 1.06052 | 33276 ft | 454 kts | 173° |
| 2026-04-16 05:21 | 45.61712 | 1.07695 | 33276 ft | 454 kts | 173° |
| 2026-04-16 05:21 | 45.55493 | 1.09287 | 33259 ft | 454 kts | 173° |
| 2026-04-16 05:22 | 45.49279 | 1.10865 | 33277 ft | 454 kts | 173° |
| 2026-04-16 05:22 | 45.43060 | 1.12442 | 33266 ft | 454 kts | 173° |
| 2026-04-16 05:23 | 45.36845 | 1.14016 | 33268 ft | 454 kts | 173° |
| 2026-04-16 05:23 | 45.30630 | 1.15588 | 33269 ft | 454 kts | 173° |
| 2026-04-16 05:24 | 45.24406 | 1.17159 | 33272 ft | 455 kts | 173° |
| 2026-04-16 05:24 | 45.18169 | 1.18697 | 33255 ft | 454 kts | 176° |
| 2026-04-16 05:25 | 45.11931 | 1.18459 | 33269 ft | 446 kts | 194° |
| 2026-04-16 05:25 | 45.05824 | 1.16823 | 33266 ft | 447 kts | 194° |
| 2026-04-16 05:26 | 44.99700 | 1.15173 | 33266 ft | 449 kts | 194° |
| 2026-04-16 05:26 | 44.93549 | 1.13569 | 33262 ft | 450 kts | 194° |
| 2026-04-16 05:27 | 44.87387 | 1.11994 | 33272 ft | 450 kts | 194° |
| 2026-04-16 05:27 | 44.81225 | 1.10429 | 33270 ft | 450 kts | 194° |
| 2026-04-16 05:28 | 44.75111 | 1.08878 | 33270 ft | 449 kts | 194° |
| 2026-04-16 05:28 | 44.68968 | 1.07321 | 33256 ft | 448 kts | 194° |
| 2026-04-16 05:29 | 44.62834 | 1.05770 | 33264 ft | 447 kts | 194° |
| 2026-04-16 05:29 | 44.56714 | 1.04225 | 33263 ft | 446 kts | 194° |
| 2026-04-16 05:30 | 44.50602 | 1.02686 | 33267 ft | 446 kts | 194° |
| 2026-04-16 05:30 | 44.44494 | 1.01151 | 33270 ft | 446 kts | 194° |
| 2026-04-16 05:31 | 44.38384 | 0.99618 | 33257 ft | 446 kts | 193° |
| 2026-04-16 05:31 | 44.32266 | 0.98087 | 33272 ft | 447 kts | 193° |
| 2026-04-16 05:32 | 44.26130 | 0.96554 | 33271 ft | 448 kts | 193° |
| 2026-04-16 05:32 | 44.19982 | 0.95022 | 33259 ft | 450 kts | 193° |
| 2026-04-16 05:33 | 44.13817 | 0.93489 | 33266 ft | 450 kts | 193° |
| 2026-04-16 05:33 | 44.07647 | 0.91958 | 33266 ft | 451 kts | 193° |
| 2026-04-16 05:34 | 44.01465 | 0.90427 | 33264 ft | 451 kts | 193° |
| 2026-04-16 05:34 | 43.95274 | 0.88897 | 33266 ft | 452 kts | 193° |
| 2026-04-16 05:35 | 43.89082 | 0.87370 | 33268 ft | 452 kts | 193° |
| 2026-04-16 05:35 | 43.82903 | 0.85762 | 33266 ft | 452 kts | 194° |
| 2026-04-16 05:36 | 43.76734 | 0.84087 | 33266 ft | 451 kts | 194° |
| 2026-04-16 05:36 | 43.70569 | 0.82420 | 33270 ft | 452 kts | 194° |
| 2026-04-16 05:37 | 43.64398 | 0.80767 | 33269 ft | 452 kts | 194° |
| 2026-04-16 05:37 | 43.58229 | 0.79123 | 33267 ft | 452 kts | 193° |
| 2026-04-16 05:38 | 43.52060 | 0.77484 | 33274 ft | 452 kts | 193° |
| 2026-04-16 05:38 | 43.45881 | 0.75844 | 33261 ft | 452 kts | 194° |
| 2026-04-16 05:39 | 43.39707 | 0.74210 | 33261 ft | 452 kts | 193° |
| 2026-04-16 05:39 | 43.33536 | 0.72579 | 33274 ft | 451 kts | 193° |
| 2026-04-16 05:40 | 43.27366 | 0.70952 | 33272 ft | 451 kts | 193° |
| 2026-04-16 05:40 | 43.21197 | 0.69329 | 33280 ft | 451 kts | 193° |
| 2026-04-16 05:41 | 43.15026 | 0.67708 | 33278 ft | 452 kts | 193° |
| 2026-04-16 05:41 | 43.08851 | 0.66090 | 33280 ft | 452 kts | 193° |
| 2026-04-16 05:42 | 43.02672 | 0.64473 | 33285 ft | 452 kts | 193° |
| 2026-04-16 05:42 | 42.97534 | 0.63132 | 33273 ft | 452 kts | 193° |
| 2026-04-16 05:43 | 42.91343 | 0.61519 | 33275 ft | 453 kts | 193° |
| 2026-04-16 05:43 | 42.85145 | 0.59907 | 33247 ft | 453 kts | 193° |
| 2026-04-16 05:44 | 42.78948 | 0.58298 | 33271 ft | 454 kts | 193° |
| 2026-04-16 05:44 | 42.72729 | 0.56687 | 33259 ft | 456 kts | 193° |
| 2026-04-16 05:45 | 42.66717 | 0.54332 | 33243 ft | 450 kts | 208° |
| 2026-04-16 05:45 | 42.61086 | 0.50662 | 33234 ft | 449 kts | 209° |
| 2026-04-16 05:46 | 42.55469 | 0.46983 | 33248 ft | 448 kts | 208° |
| 2026-04-16 05:46 | 42.49831 | 0.43355 | 33228 ft | 449 kts | 208° |
| 2026-04-16 05:47 | 42.44182 | 0.39758 | 33236 ft | 448 kts | 208° |
| 2026-04-16 05:47 | 42.38535 | 0.36173 | 33223 ft | 448 kts | 208° |
| 2026-04-16 05:48 | 42.32892 | 0.32596 | 33230 ft | 448 kts | 208° |
| 2026-04-16 05:48 | 42.27248 | 0.29025 | 33236 ft | 448 kts | 208° |
| 2026-04-16 05:49 | 42.21603 | 0.25458 | 33238 ft | 448 kts | 208° |
| 2026-04-16 05:49 | 42.15954 | 0.21897 | 33223 ft | 448 kts | 208° |
| 2026-04-16 05:50 | 42.10310 | 0.18345 | 33228 ft | 448 kts | 208° |
| 2026-04-16 05:50 | 42.04471 | 0.15400 | 33229 ft | 452 kts | 193° |
| 2026-04-16 05:51 | 41.98217 | 0.14367 | 33223 ft | 454 kts | 187° |
| 2026-04-16 05:51 | 41.91932 | 0.13520 | 33222 ft | 454 kts | 187° |
| 2026-04-16 05:52 | 41.85647 | 0.12626 | 33224 ft | 454 kts | 188° |
| 2026-04-16 05:52 | 41.79362 | 0.11695 | 33223 ft | 455 kts | 188° |
| 2026-04-16 05:53 | 41.73076 | 0.10753 | 33221 ft | 455 kts | 188° |
| 2026-04-16 05:53 | 41.66783 | 0.09813 | 33223 ft | 455 kts | 188° |
| 2026-04-16 05:54 | 41.60423 | 0.08865 | 33235 ft | 466 kts | 188° |
| 2026-04-16 05:54 | 41.53886 | 0.07893 | 33233 ft | 479 kts | 188° |
| 2026-04-16 05:55 | 41.47186 | 0.06900 | 33234 ft | 490 kts | 188° |
| 2026-04-16 05:55 | 41.40344 | 0.05889 | 33230 ft | 499 kts | 188° |
| 2026-04-16 05:56 | 41.33419 | 0.04869 | 33207 ft | 501 kts | 188° |
| 2026-04-16 05:56 | 41.26492 | 0.03850 | 33221 ft | 501 kts | 188° |
| 2026-04-16 05:57 | 41.19615 | 0.02839 | 33222 ft | 500 kts | 188° |
| 2026-04-16 05:57 | 41.12695 | 0.01824 | 33225 ft | 500 kts | 188° |
| 2026-04-16 05:58 | 41.05781 | 0.00815 | 33230 ft | 499 kts | 188° |
| 2026-04-16 05:58 | 40.98884 | -0.00187 | 33241 ft | 499 kts | 188° |
| 2026-04-16 05:59 | 40.91997 | -0.01184 | 33238 ft | 498 kts | 188° |
| 2026-04-16 05:59 | 40.85117 | -0.02180 | 33240 ft | 496 kts | 188° |
| 2026-04-16 06:00 | 40.78264 | -0.03169 | 33243 ft | 495 kts | 188° |
| 2026-04-16 06:00 | 40.71417 | -0.04156 | 33261 ft | 495 kts | 188° |
| 2026-04-16 06:01 | 40.64573 | -0.05141 | 33251 ft | 495 kts | 188° |
| 2026-04-16 06:01 | 40.57734 | -0.06123 | 33256 ft | 494 kts | 188° |
| 2026-04-16 06:02 | 40.47798 | -0.09403 | 33246 ft | 491 kts | 200° |
| 2026-04-16 06:02 | 40.41291 | -0.12110 | 33244 ft | 490 kts | 199° |
| 2026-04-16 06:03 | 40.34762 | -0.14710 | 33242 ft | 490 kts | 199° |
| 2026-04-16 06:03 | 40.28228 | -0.17268 | 33238 ft | 490 kts | 199° |
| 2026-04-16 06:04 | 40.21704 | -0.19833 | 33241 ft | 489 kts | 199° |
| 2026-04-16 06:04 | 40.15186 | -0.22412 | 33245 ft | 490 kts | 199° |
| 2026-04-16 06:05 | 40.08705 | -0.24972 | 33232 ft | 490 kts | 199° |
| 2026-04-16 06:05 | 40.02177 | -0.27543 | 33222 ft | 490 kts | 199° |
| 2026-04-16 06:06 | 39.95649 | -0.30085 | 33231 ft | 490 kts | 199° |
| 2026-04-16 06:06 | 39.89112 | -0.32594 | 33236 ft | 490 kts | 199° |
| 2026-04-16 06:07 | 39.82581 | -0.35127 | 33216 ft | 489 kts | 199° |
| 2026-04-16 06:07 | 39.76071 | -0.37687 | 33208 ft | 487 kts | 202° |
| 2026-04-16 06:08 | 39.69603 | -0.40317 | 33209 ft | 489 kts | 197° |
| 2026-04-16 06:08 | 39.63038 | -0.42621 | 33211 ft | 488 kts | 199° |
| 2026-04-16 06:09 | 39.56554 | -0.45216 | 33199 ft | 487 kts | 200° |
| 2026-04-16 06:09 | 39.50063 | -0.47715 | 33224 ft | 487 kts | 197° |
| 2026-04-16 06:10 | 39.43313 | -0.48863 | 33221 ft | 492 kts | 185° |
| 2026-04-16 06:10 | 39.36456 | -0.49273 | 33214 ft | 494 kts | 185° |
| 2026-04-16 06:11 | 39.29588 | -0.49691 | 33214 ft | 494 kts | 186° |
| 2026-04-16 06:11 | 39.22726 | -0.50164 | 33225 ft | 494 kts | 186° |
| 2026-04-16 06:12 | 39.15864 | -0.50661 | 33220 ft | 494 kts | 186° |
| 2026-04-16 06:12 | 39.09002 | -0.51159 | 33226 ft | 494 kts | 186° |
| 2026-04-16 06:13 | 39.02145 | -0.51653 | 33233 ft | 493 kts | 186° |
| 2026-04-16 06:13 | 38.95290 | -0.52144 | 33238 ft | 493 kts | 186° |
| 2026-04-16 06:14 | 38.88437 | -0.52634 | 33231 ft | 493 kts | 187° |
| 2026-04-16 06:14 | 38.81586 | -0.53122 | 33240 ft | 493 kts | 187° |
| 2026-04-16 06:15 | 38.74734 | -0.53611 | 33127 ft | 491 kts | 187° |
| 2026-04-16 06:15 | 38.71373 | -0.53848 | 32773 ft | 478 kts | 187° |
| 2026-04-16 06:15 | 38.68113 | -0.54074 | 32370 ft | 462 kts | 187° |
| 2026-04-16 06:16 | 38.64951 | -0.54294 | 32000 ft | 449 kts | 187° |
| 2026-04-16 06:16 | 38.61869 | -0.54511 | 31604 ft | 437 kts | 187° |
| 2026-04-16 06:16 | 38.58868 | -0.54724 | 31244 ft | 427 kts | 187° |
| 2026-04-16 06:16 | 38.55937 | -0.54933 | 30886 ft | 417 kts | 186° |
| 2026-04-16 06:17 | 38.53076 | -0.55138 | 30536 ft | 408 kts | 186° |
| 2026-04-16 06:17 | 38.50272 | -0.55338 | 30178 ft | 399 kts | 186° |
| 2026-04-16 06:17 | 38.47532 | -0.55532 | 29795 ft | 390 kts | 186° |
| 2026-04-16 06:17 | 38.44856 | -0.55722 | 29469 ft | 382 kts | 186° |
| 2026-04-16 06:18 | 38.42210 | -0.55910 | 29121 ft | 380 kts | 186° |
| 2026-04-16 06:18 | 38.39575 | -0.56098 | 28770 ft | 379 kts | 186° |
| 2026-04-16 06:18 | 38.36935 | -0.56286 | 28440 ft | 383 kts | 186° |
| 2026-04-16 06:18 | 38.34227 | -0.56480 | 28111 ft | 395 kts | 186° |
| 2026-04-16 06:19 | 38.31465 | -0.56675 | 27739 ft | 398 kts | 185° |
| 2026-04-16 06:19 | 38.28705 | -0.56867 | 27364 ft | 396 kts | 185° |
| 2026-04-16 06:19 | 38.25961 | -0.57008 | 27001 ft | 394 kts | 181° |
| 2026-04-16 06:19 | 38.23226 | -0.56930 | 26654 ft | 392 kts | 180° |
| 2026-04-16 06:20 | 38.20508 | -0.56788 | 26308 ft | 390 kts | 179° |
| 2026-04-16 06:20 | 38.17803 | -0.56629 | 25958 ft | 388 kts | 179° |
| 2026-04-16 06:20 | 38.15114 | -0.56473 | 25612 ft | 386 kts | 179° |
| 2026-04-16 06:20 | 38.12435 | -0.56326 | 25269 ft | 384 kts | 179° |
| 2026-04-16 06:21 | 38.09771 | -0.56187 | 24927 ft | 383 kts | 179° |
| 2026-04-16 06:21 | 38.07151 | -0.56055 | 24589 ft | 381 kts | 179° |
| 2026-04-16 06:21 | 38.04504 | -0.55926 | 24233 ft | 380 kts | 179° |
| 2026-04-16 06:21 | 38.01861 | -0.55798 | 23892 ft | 379 kts | 179° |
| 2026-04-16 06:22 | 37.99224 | -0.55671 | 23482 ft | 379 kts | 178° |
| 2026-04-16 06:22 | 37.96597 | -0.55545 | 23115 ft | 377 kts | 178° |
| 2026-04-16 06:22 | 37.93990 | -0.55420 | 22758 ft | 374 kts | 178° |
| 2026-04-16 06:22 | 37.92014 | -0.55326 | 22506 ft | 372 kts | 178° |
| 2026-04-16 06:23 | 37.89433 | -0.55202 | 22158 ft | 370 kts | 178° |
| 2026-04-16 06:23 | 37.86869 | -0.55079 | 21826 ft | 368 kts | 178° |
| 2026-04-16 06:23 | 37.84321 | -0.54957 | 21495 ft | 365 kts | 178° |
| 2026-04-16 06:23 | 37.81788 | -0.54836 | 21169 ft | 363 kts | 178° |
| 2026-04-16 06:24 | 37.79269 | -0.54716 | 20837 ft | 361 kts | 178° |
| 2026-04-16 06:24 | 37.76763 | -0.54597 | 20511 ft | 359 kts | 178° |
| 2026-04-16 06:24 | 37.74273 | -0.54478 | 20186 ft | 358 kts | 178° |
| 2026-04-16 06:24 | 37.71793 | -0.54360 | 19864 ft | 356 kts | 178° |
| 2026-04-16 06:25 | 37.69317 | -0.54242 | 19535 ft | 355 kts | 178° |
| 2026-04-16 06:25 | 37.66855 | -0.54125 | 19214 ft | 354 kts | 178° |
| 2026-04-16 06:25 | 37.64404 | -0.54008 | 18891 ft | 352 kts | 178° |
| 2026-04-16 06:25 | 37.61953 | -0.53891 | 18550 ft | 352 kts | 178° |
| 2026-04-16 06:26 | 37.59507 | -0.53775 | 18191 ft | 351 kts | 178° |
| 2026-04-16 06:26 | 37.57073 | -0.53660 | 17842 ft | 349 kts | 178° |
| 2026-04-16 06:26 | 37.54653 | -0.53544 | 17500 ft | 347 kts | 178° |
| 2026-04-16 06:26 | 37.52240 | -0.53430 | 17178 ft | 345 kts | 178° |
| 2026-04-16 06:27 | 37.49846 | -0.53320 | 16856 ft | 343 kts | 180° |
| 2026-04-16 06:27 | 37.47526 | -0.53855 | 16507 ft | 339 kts | 208° |
| 2026-04-16 06:27 | 37.45648 | -0.55549 | 16239 ft | 331 kts | 229° |
| 2026-04-16 06:27 | 37.44308 | -0.57854 | 15924 ft | 324 kts | 243° |
| 2026-04-16 06:28 | 37.43275 | -0.60361 | 15592 ft | 322 kts | 249° |
| 2026-04-16 06:28 | 37.42427 | -0.62959 | 15258 ft | 320 kts | 253° |
| 2026-04-16 06:28 | 37.41696 | -0.65597 | 14941 ft | 319 kts | 255° |
| 2026-04-16 06:28 | 37.41059 | -0.68253 | 14614 ft | 317 kts | 258° |
| 2026-04-16 06:29 | 37.40523 | -0.70939 | 14293 ft | 316 kts | 261° |
| 2026-04-16 06:29 | 37.40107 | -0.73645 | 13968 ft | 314 kts | 264° |
| 2026-04-16 06:29 | 37.39822 | -0.76359 | 13613 ft | 312 kts | 268° |
| 2026-04-16 06:29 | 37.39665 | -0.79073 | 13271 ft | 310 kts | 270° |
| 2026-04-16 06:30 | 37.39629 | -0.80865 | 13053 ft | 308 kts | 272° |
| 2026-04-16 06:30 | 37.39674 | -0.83549 | 12737 ft | 306 kts | 276° |
| 2026-04-16 06:30 | 37.39833 | -0.86198 | 12425 ft | 303 kts | 279° |
| 2026-04-16 06:30 | 37.40104 | -0.88819 | 12116 ft | 301 kts | 282° |
| 2026-04-16 06:31 | 37.40480 | -0.91369 | 11797 ft | 293 kts | 285° |
| 2026-04-16 06:31 | 37.40957 | -0.93847 | 11509 ft | 290 kts | 288° |
| 2026-04-16 06:31 | 37.41532 | -0.96273 | 11220 ft | 289 kts | 290° |
| 2026-04-16 06:31 | 37.42220 | -0.98627 | 10962 ft | 282 kts | 297° |
| 2026-04-16 06:32 | 37.43150 | -1.00754 | 10644 ft | 275 kts | 303° |
| 2026-04-16 06:32 | 37.44166 | -1.02793 | 10237 ft | 276 kts | 304° |
| 2026-04-16 06:32 | 37.45195 | -1.04827 | 9958 ft | 275 kts | 304° |
| 2026-04-16 06:32 | 37.46200 | -1.06833 | 9591 ft | 269 kts | 304° |
| 2026-04-16 06:33 | 37.47192 | -1.08836 | 9087 ft | 270 kts | 303° |
| 2026-04-16 06:33 | 37.48178 | -1.10847 | 8651 ft | 269 kts | 303° |
| 2026-04-16 06:33 | 37.49149 | -1.12840 | 8241 ft | 266 kts | 303° |
| 2026-04-16 06:33 | 37.50114 | -1.14829 | 7811 ft | 265 kts | 303° |
| 2026-04-16 06:34 | 37.51062 | -1.16791 | 7469 ft | 260 kts | 302° |
| 2026-04-16 06:34 | 37.51988 | -1.18712 | 7200 ft | 253 kts | 302° |
| 2026-04-16 06:34 | 37.52898 | -1.20601 | 6947 ft | 252 kts | 302° |
| 2026-04-16 06:34 | 37.53807 | -1.22492 | 6656 ft | 252 kts | 302° |
| 2026-04-16 06:35 | 37.54717 | -1.24386 | 6252 ft | 251 kts | 302° |
| 2026-04-16 06:35 | 37.55612 | -1.26250 | 5963 ft | 246 kts | 302° |
| 2026-04-16 06:35 | 37.56482 | -1.28065 | 5719 ft | 238 kts | 303° |
| 2026-04-16 06:35 | 37.57316 | -1.29806 | 5495 ft | 228 kts | 303° |
| 2026-04-16 06:36 | 37.58122 | -1.31488 | 5324 ft | 220 kts | 303° |
| 2026-04-16 06:36 | 37.58910 | -1.33131 | 5213 ft | 221 kts | 303° |
| 2026-04-16 06:36 | 37.59702 | -1.34781 | 5102 ft | 217 kts | 304° |
| 2026-04-16 06:36 | 37.60733 | -1.36048 | 4975 ft | 208 kts | 336° |
| 2026-04-16 06:37 | 37.62119 | -1.36480 | 4929 ft | 208 kts | 1° |
| 2026-04-16 06:37 | 37.63473 | -1.35874 | 4836 ft | 212 kts | 37° |
| 2026-04-16 06:37 | 37.64593 | -1.34635 | 4692 ft | 217 kts | 39° |
| 2026-04-16 06:37 | 37.65725 | -1.33390 | 4549 ft | 213 kts | 43° |
| 2026-04-16 06:38 | 37.66745 | -1.32026 | 4237 ft | 212 kts | 48° |
| 2026-04-16 06:38 | 37.67684 | -1.30644 | 3990 ft | 202 kts | 48° |
| 2026-04-16 06:38 | 37.68551 | -1.29318 | 3790 ft | 190 kts | 50° |
| 2026-04-16 06:38 | 37.69431 | -1.28097 | 3603 ft | 188 kts | 44° |
| 2026-04-16 06:39 | 37.70298 | -1.26856 | 3404 ft | 188 kts | 49° |
| 2026-04-16 06:39 | 37.71151 | -1.25609 | 3215 ft | 186 kts | 48° |
| 2026-04-16 06:39 | 37.71980 | -1.24408 | 3001 ft | 176 kts | 48° |
| 2026-04-16 06:39 | 37.72751 | -1.23290 | 2788 ft | 162 kts | 48° |
| 2026-04-16 06:40 | 37.73455 | -1.22240 | 2515 ft | 153 kts | 51° |
| 2026-04-16 06:40 | 37.74089 | -1.21184 | 2373 ft | 150 kts | 52° |
| 2026-04-16 06:40 | 37.74730 | -1.20113 | 2172 ft | 154 kts | 52° |
| 2026-04-16 06:40 | 37.75387 | -1.19069 | 1966 ft | 152 kts | 50° |
| 2026-04-16 06:41 | 37.76070 | -1.18038 | 1680 ft | 152 kts | 48° |
| 2026-04-16 06:41 | 37.76772 | -1.17043 | 1431 ft | 152 kts | 46° |
| 2026-04-16 06:41 | 37.77493 | -1.16087 | 1226 ft | 149 kts | 43° |
| 2026-04-16 06:41 | 37.78234 | -1.15142 | 1021 ft | 154 kts | 43° |
| 2026-04-16 06:42 | 37.78992 | -1.14180 | 813 ft | 153 kts | 44° |
| 2026-04-16 06:42 | 37.79712 | -1.13247 | 654 ft | 140 kts | 44° |
| 2026-04-16 06:42 | 37.80328 | -1.12453 | 647 ft | 110 kts | 46° |
| 2026-04-16 06:42 | 37.80769 | -1.11887 | 643 ft | 71 kts | 45° |
| 2026-04-16 06:43 | 37.81056 | -1.11516 | 646 ft | 44 kts | 45° |
| 2026-04-16 06:43 | 37.81190 | -1.11345 | 647 ft | 19 kts | 44° |
| 2026-04-16 06:43 | 37.81287 | -1.11318 | 648 ft | 16 kts | 315° |
| 2026-04-16 06:43 | 37.81346 | -1.11429 | 649 ft | 15 kts | 272° |
| 2026-04-16 06:44 | 37.81285 | -1.11532 | 651 ft | 15 kts | 225° |
| 2026-04-16 06:44 | 37.81209 | -1.11629 | 651 ft | 19 kts | 226° |
| 2026-04-16 06:44 | 37.81102 | -1.11767 | 649 ft | 23 kts | 225° |
| 2026-04-16 06:44 | 37.80993 | -1.11908 | 646 ft | 22 kts | 225° |
| 2026-04-16 06:45 | 37.80887 | -1.12042 | 646 ft | 21 kts | 224° |
| 2026-04-16 06:45 | 37.80787 | -1.12170 | 646 ft | 20 kts | 226° |
| 2026-04-16 06:45 | 37.80691 | -1.12293 | 650 ft | 19 kts | 225° |
| 2026-04-16 06:45 | 37.80599 | -1.12415 | 648 ft | 19 kts | 225° |
| 2026-04-16 06:46 | 37.80509 | -1.12530 | 648 ft | 18 kts | 225° |
| 2026-04-16 06:46 | 37.80421 | -1.12642 | 647 ft | 18 kts | 226° |
| 2026-04-16 06:46 | 37.80433 | -1.12766 | 646 ft | 17 kts | 316° |
| 2026-04-16 06:46 | 37.80428 | -1.12887 | 647 ft | 16 kts | 225° |
| 2026-04-16 06:47 | 37.80353 | -1.12984 | 646 ft | 13 kts | 225° |
| 2026-04-16 06:47 | 37.80346 | -1.13043 | 646 ft | 8 kts | 311° |
| 2026-04-16 06:47 | 37.80379 | -1.13085 | 646 ft | 4 kts | 315° |
| 2026-04-16 06:47 | 37.80381 | -1.13087 | 646 ft | 0 kts | 315° |